Time;durP1;ratioP1;P1;durP2;ratioP2;P2;SDS_P1;SDS_P2;PMS_P1;PMS_P2;Temp;Humidity;BMP_temperature;BMP_pressure;BME280_temperature;BME280_humidity;BME280_pressure;Samples;Min_cycle;Max_cycle;Signal;HPM_P1;HPM_P2
2022/03/22 00:00:50;;;;;;;51.83;29.58;;;5.40;99.90;;;;;;5092291;28;20089;-82
2022/03/22 00:03:34;;;;;;;49.90;31.17;;;5.40;99.90;;;;;;5092273;28;20506;-82
2022/03/22 00:06:18;;;;;;;;;;;5.30;99.90;;;;;;5091066;28;20127;-82
2022/03/22 00:09:02;;;;;;;;;;;5.30;99.90;;;;;;5091962;28;20352;-82
2022/03/22 00:11:50;;;;;;;45.75;29.90;;;5.30;99.90;;;;;;5105603;28;20005;-82
2022/03/22 00:14:34;;;;;;;47.80;29.98;;;5.20;99.90;;;;;;5105360;28;20084;-82
2022/03/22 00:17:18;;;;;;;50.00;30.75;;;5.20;99.90;;;;;;5095679;28;20673;-82
2022/03/22 00:20:03;;;;;;;;;;;5.20;99.90;;;;;;5134609;27;20392;-83
2022/03/22 00:22:48;;;;;;;46.55;29.40;;;5.20;99.90;;;;;;5092353;28;19918;-82
2022/03/22 00:25:32;;;;;;;48.67;29.88;;;5.10;99.90;;;;;;5105397;28;20097;-82
2022/03/22 00:28:17;;;;;;;49.67;30.15;;;5.10;99.90;;;;;;5091500;28;20082;-82
2022/03/22 00:31:02;;;;;;;;;;;5.10;99.90;;;;;;5091434;28;20150;-83
2022/03/22 00:33:46;;;;;;;48.05;29.42;;;5.00;99.90;;;;;;5105360;28;19964;-82
2022/03/22 00:36:32;;;;;;;48.00;29.27;;;5.00;99.90;;;;;;5092556;28;20047;-82
2022/03/22 00:39:18;;;;;;;52.05;32.40;;;5.00;99.90;;;;;;5110795;28;20038;-82
2022/03/22 00:42:02;;;;;;;50.78;32.88;;;5.00;99.90;;;;;;5111096;28;20096;-84
2022/03/22 00:44:47;;;;;;;55.78;32.35;;;5.00;99.90;;;;;;5082327;28;20039;-83
2022/03/22 00:47:31;;;;;;;46.15;30.55;;;5.00;99.90;;;;;;5091714;28;20051;-82
2022/03/22 00:50:17;;;;;;;;;;;5.00;99.90;;;;;;5091771;28;20120;-82
2022/03/22 00:53:04;;;;;;;49.60;31.80;;;5.00;99.90;;;;;;5090904;28;19956;-82
2022/03/22 00:55:49;;;;;;;54.63;31.10;;;5.00;99.90;;;;;;5091827;28;20039;-82
2022/03/22 00:58:33;;;;;;;48.47;32.05;;;5.00;99.90;;;;;;5105879;28;20448;-82
2022/03/22 01:01:18;;;;;;;53.50;33.15;;;5.00;99.90;;;;;;5111610;28;20084;-82
2022/03/22 01:04:04;;;;;;;;;;;5.00;99.90;;;;;;5114653;28;20092;-82
2022/03/22 01:06:48;;;;;;;51.95;31.95;;;5.00;99.90;;;;;;5083054;28;19927;-82
2022/03/22 01:09:32;;;;;;;;;;;5.00;99.90;;;;;;5094616;28;20465;-82
2022/03/22 01:12:16;;;;;;;38.17;24.05;;;5.00;99.90;;;;;;5103265;28;19915;-82
2022/03/22 01:15:28;;;;;;;53.50;32.28;;;5.00;99.90;;;;;;5094262;28;20058;-82
2022/03/22 01:18:13;;;;;;;53.13;33.50;;;5.00;99.90;;;;;;5107298;28;20088;-82
2022/03/22 01:20:58;;;;;;;55.35;33.75;;;5.00;99.90;;;;;;5119742;27;20831;-82
2022/03/22 01:23:43;;;;;;;56.30;34.28;;;5.00;99.90;;;;;;5095094;28;20035;-83
2022/03/22 01:26:27;;;;;;;50.92;31.83;;;5.00;99.90;;;;;;5093365;28;20551;-82
2022/03/22 01:29:12;;;;;;;50.97;32.85;;;5.00;99.90;;;;;;5093405;28;20070;-82
2022/03/22 01:31:56;;;;;;;55.50;33.38;;;5.00;99.90;;;;;;5099086;28;20038;-82
2022/03/22 01:34:42;;;;;;;50.38;33.50;;;5.00;99.90;;;;;;5115435;28;20043;-82
2022/03/22 01:37:26;;;;;;;54.35;34.83;;;4.90;99.90;;;;;;5133751;27;20088;-82
2022/03/22 01:40:11;;;;;;;54.55;33.80;;;5.00;99.90;;;;;;5122145;27;20128;-83
2022/03/22 01:42:57;;;;;;;50.08;32.53;;;5.00;99.90;;;;;;5094722;28;20555;-82
2022/03/22 01:45:43;;;;;;;53.72;31.45;;;4.90;99.90;;;;;;5093839;28;20146;-82
2022/03/22 01:48:27;;;;;;;56.35;32.55;;;4.90;99.90;;;;;;5108059;28;20038;-82
2022/03/22 01:51:11;;;;;;;;;;;4.90;99.90;;;;;;5115053;28;20039;-83
2022/03/22 01:53:56;;;;;;;52.15;32.83;;;4.90;99.90;;;;;;5099687;28;19918;-82
2022/03/22 01:56:40;;;;;;;58.10;32.88;;;4.90;99.90;;;;;;5114716;28;20035;-82
2022/03/22 01:59:24;;;;;;;55.83;35.63;;;4.80;99.90;;;;;;5127786;27;20047;-83
2022/03/22 02:08:18;;;;;;;50.45;31.30;;;4.90;99.90;;;;;;5093437;28;20505;-82
2022/03/22 02:11:02;;;;;;;54.00;33.38;;;4.80;99.90;;;;;;5093230;28;20044;-81
2022/03/22 02:13:46;;;;;;;;;;;4.80;99.90;;;;;;5094746;28;20039;-82
2022/03/22 02:16:31;;;;;;;52.33;32.65;;;4.80;99.90;;;;;;5093916;28;20337;-82
2022/03/22 02:19:16;;;;;;;47.88;30.88;;;4.80;99.90;;;;;;5093449;28;20494;-83
2022/03/22 02:22:02;;;;;;;53.03;31.25;;;4.80;99.90;;;;;;5094161;28;20095;-82
2022/03/22 02:24:46;;;;;;;56.28;33.78;;;4.70;99.90;;;;;;5093935;28;20034;-82
2022/03/22 02:27:34;;;;;;;53.00;33.53;;;4.70;99.90;;;;;;5106674;28;20062;-82
2022/03/22 02:30:19;;;;;;;56.15;35.88;;;4.70;99.90;;;;;;5093275;28;20039;-83
2022/03/22 02:33:03;;;;;;;60.38;35.55;;;4.70;99.90;;;;;;5092742;28;20115;-82
2022/03/22 02:35:48;;;;;;;54.35;33.55;;;4.70;99.90;;;;;;5126012;27;20505;-82
2022/03/22 02:38:32;;;;;;;50.80;32.70;;;4.70;99.90;;;;;;5083794;28;20533;-82
2022/03/22 02:41:18;;;;;;;;;;;4.70;99.90;;;;;;5105940;28;20119;-83
2022/03/22 02:44:03;;;;;;;54.67;32.70;;;4.60;99.90;;;;;;5093610;28;19915;-82
2022/03/22 02:46:47;;;;;;;58.40;32.97;;;4.60;99.90;;;;;;5106777;28;20439;-82
2022/03/22 02:49:34;;;;;;;51.35;33.25;;;4.60;99.90;;;;;;5092785;28;20515;-81
2022/03/22 02:52:18;;;;;;;55.00;33.00;;;4.60;99.90;;;;;;5121200;27;20396;-85
2022/03/22 02:55:06;;;;;;;60.17;33.97;;;4.60;99.90;;;;;;5092338;28;20039;-82
2022/03/22 02:57:50;;;;;;;50.85;32.72;;;4.60;99.90;;;;;;5106304;28;20407;-82
2022/03/22 03:00:37;;;;;;;47.90;31.95;;;4.60;99.90;;;;;;5105931;28;20519;-82
2022/03/22 03:03:22;;;;;;;55.60;33.72;;;4.50;99.90;;;;;;5092542;28;20043;-83
2022/03/22 03:06:07;;;;;;;56.95;33.38;;;4.50;99.90;;;;;;5094095;28;20419;-82
2022/03/22 03:08:51;;;;;;;54.42;34.30;;;4.50;99.90;;;;;;5106167;28;20128;-82
2022/03/22 03:11:35;;;;;;;56.33;34.42;;;4.50;99.90;;;;;;5091194;28;20119;-82
2022/03/22 03:17:22;;;;;;;61.30;33.58;;;4.50;99.90;;;;;;5092483;28;20401;-84
2022/03/22 03:20:07;;;;;;;52.75;33.45;;;4.40;99.90;;;;;;5093001;28;20094;-82
2022/03/22 03:22:52;;;;;;;57.55;32.97;;;4.40;99.90;;;;;;5092016;28;20089;-82
2022/03/22 03:25:36;;;;;;;53.67;34.20;;;4.40;99.90;;;;;;5101127;28;20042;-82
2022/03/22 03:28:20;;;;;;;51.28;32.55;;;4.40;99.90;;;;;;5113957;27;20119;-82
2022/03/22 03:31:04;;;;;;;56.70;34.42;;;4.40;99.90;;;;;;5091825;28;20081;-82
2022/03/22 03:33:49;;;;;;;49.97;31.40;;;4.40;99.90;;;;;;5105880;28;20043;-81
2022/03/22 03:36:33;;;;;;;54.38;33.58;;;4.40;99.90;;;;;;5105288;28;20063;-82
2022/03/22 03:39:18;;;;;;;54.95;35.33;;;4.40;99.90;;;;;;5092537;28;20043;-82
2022/03/22 03:42:02;;;;;;;53.22;32.60;;;4.40;99.90;;;;;;5091868;28;20101;-81
2022/03/22 03:47:50;;;;;;;58.05;31.95;;;4.40;99.90;;;;;;5098236;28;20112;-82
2022/03/22 03:50:34;;;;;;;50.95;33.05;;;4.40;99.90;;;;;;5111134;28;20474;-82
2022/03/22 03:53:18;;;;;;;;;;;4.30;99.90;;;;;;5113208;28;20084;-82
2022/03/22 03:56:03;;;;;;;54.63;34.15;;;4.30;99.90;;;;;;5111746;28;19918;-82
2022/03/22 03:58:47;;;;;;;50.13;33.08;;;4.30;99.90;;;;;;5082587;28;20047;-82
2022/03/22 04:01:33;;;;;;;;;;;4.40;99.90;;;;;;5139959;27;20139;-82
2022/03/22 04:04:17;;;;;;;57.78;31.70;;;4.30;99.90;;;;;;5112727;28;19935;-83
2022/03/22 04:07:02;;;;;;;;;;;4.30;99.90;;;;;;5112025;28;20096;-82
2022/03/22 04:09:46;;;;;;;50.92;33.17;;;4.30;99.90;;;;;;5095377;28;19972;-82
2022/03/22 04:12:31;;;;;;;;;;;4.30;99.90;;;;;;5092114;28;20047;-83
2022/03/22 04:15:15;;;;;;;;;;;4.30;99.90;;;;;;5091632;28;19935;-82
2022/03/22 04:17:59;;;;;;;50.28;31.42;;;4.30;99.90;;;;;;5092329;28;19923;-82
2022/03/22 04:20:47;;;;;;;51.88;32.03;;;4.30;99.90;;;;;;5091546;28;20093;-82
2022/03/22 04:23:32;;;;;;;50.72;31.55;;;4.30;99.90;;;;;;5104487;28;20070;-83
2022/03/22 04:26:17;;;;;;;47.75;32.28;;;4.40;99.90;;;;;;5119845;27;20070;-82
2022/03/22 04:35:17;;;;;;;47.00;30.73;;;4.40;99.90;;;;;;5112470;28;20043;-82
2022/03/22 04:38:02;;;;;;;50.30;29.83;;;4.30;99.90;;;;;;5112487;28;20034;-82
2022/03/22 04:40:47;;;;;;;;;;;4.30;99.90;;;;;;5116153;28;20403;-82
2022/03/22 04:43:31;;;;;;;53.35;31.13;;;4.30;99.90;;;;;;5114982;28;19922;-84
2022/03/22 04:46:18;;;;;;;;;;;4.20;99.90;;;;;;5115589;28;20100;-82
2022/03/22 04:49:02;;;;;;;53.78;32.40;;;4.20;99.90;;;;;;5094162;28;19918;-82
2022/03/22 04:57:52;;;;;;;49.55;31.13;;;4.10;99.90;;;;;;5095072;28;20070;-82
2022/03/22 05:00:37;;;;;;;50.70;31.15;;;4.10;99.90;;;;;;5079694;28;20463;-82
2022/03/22 05:03:21;;;;;;;45.75;30.80;;;4.00;99.90;;;;;;5094458;28;20043;-82
2022/03/22 05:09:10;;;;;;;57.25;32.40;;;4.00;99.90;;;;;;5105542;28;20062;-82
2022/03/22 05:11:59;;;;;;;55.83;33.38;;;4.00;99.90;;;;;;5114168;28;20088;-82
2022/03/22 05:14:45;;;;;;;48.90;30.80;;;3.90;99.90;;;;;;5114057;28;20054;-82
2022/03/22 05:17:29;;;;;;;48.45;30.27;;;3.90;99.90;;;;;;5100494;28;20046;-82
2022/03/22 05:20:15;;;;;;;;;;;3.90;99.90;;;;;;5144359;27;20394;-82
2022/03/22 05:22:59;;;;;;;45.92;28.00;;;3.90;99.90;;;;;;5111413;28;19934;-82
2022/03/22 05:25:44;;;;;;;49.13;31.83;;;3.90;99.90;;;;;;5122337;27;20572;-82
2022/03/22 05:28:29;;;;;;;50.25;30.38;;;3.90;99.90;;;;;;5095053;28;20035;-82
2022/03/22 05:31:17;;;;;;;48.92;30.55;;;3.90;99.90;;;;;;5108454;28;20043;-82
2022/03/22 05:34:02;;;;;;;47.80;30.65;;;3.90;99.90;;;;;;5096724;28;20403;-82
2022/03/22 05:36:47;;;;;;;52.17;31.50;;;3.90;99.90;;;;;;5111187;28;20685;-82
2022/03/22 05:39:31;;;;;;;50.05;31.67;;;3.90;99.90;;;;;;5083631;28;20058;-82
2022/03/22 05:42:16;;;;;;;52.92;30.90;;;3.90;99.90;;;;;;5099432;28;20043;-82
2022/03/22 05:45:00;;;;;;;47.53;30.10;;;3.90;99.90;;;;;;5111253;28;20123;-81
2022/03/22 05:47:45;;;;;;;47.58;30.80;;;3.90;99.90;;;;;;5113355;28;20577;-82
2022/03/22 05:50:29;;;;;;;48.38;30.85;;;3.90;99.90;;;;;;5128216;27;20047;-82
2022/03/22 05:53:14;;;;;;;45.30;29.40;;;3.90;99.90;;;;;;5143305;27;20038;-81
2022/03/22 05:55:59;;;;;;;54.15;31.20;;;3.90;99.90;;;;;;5142616;27;20497;-82
2022/03/22 05:58:43;;;;;;;;;;;3.90;99.90;;;;;;5100543;28;20046;-84
2022/03/22 06:01:28;;;;;;;55.17;31.42;;;3.90;99.90;;;;;;5122196;27;19919;-82
2022/03/22 06:04:13;;;;;;;51.92;30.13;;;3.90;99.90;;;;;;5094451;28;20170;-82
2022/03/22 06:06:58;;;;;;;52.58;30.73;;;4.00;99.90;;;;;;5092623;28;20043;-82
2022/03/22 06:09:43;;;;;;;47.25;30.80;;;4.00;99.90;;;;;;5107327;27;20162;-83
2022/03/22 06:12:33;;;;;;;;;;;4.10;99.90;;;;;;5107974;28;20125;-82
2022/03/22 06:15:22;;;;;;;54.00;31.88;;;4.10;99.90;;;;;;5122135;27;19931;-82
2022/03/22 06:18:11;;;;;;;48.50;31.70;;;4.10;99.90;;;;;;5093454;28;20043;-82
2022/03/22 06:20:55;;;;;;;52.35;31.13;;;4.20;99.90;;;;;;5121401;27;20177;-82
2022/03/22 06:23:40;;;;;;;46.10;29.17;;;4.20;99.90;;;;;;5107373;28;20042;-82
2022/03/22 06:26:24;;;;;;;;;;;4.20;99.90;;;;;;5094191;28;20556;-82
2022/03/22 06:29:08;;;;;;;46.55;29.85;;;4.20;99.90;;;;;;5093317;28;20337;-82
2022/03/22 06:31:52;;;;;;;50.60;30.90;;;4.30;99.90;;;;;;5077831;28;20494;-82
2022/03/22 06:34:36;;;;;;;;;;;4.30;99.90;;;;;;5093236;28;20105;-82
2022/03/22 06:37:21;;;;;;;50.33;31.30;;;4.40;99.90;;;;;;5093743;28;19915;-81
2022/03/22 06:40:07;;;;;;;52.72;31.25;;;4.40;99.90;;;;;;5092027;28;20046;-81
2022/03/22 06:42:51;;;;;;;46.35;30.27;;;4.50;99.90;;;;;;5077644;28;20047;-82
2022/03/22 06:45:37;;;;;;;48.60;31.75;;;4.50;99.90;;;;;;5064017;28;20101;-81
2022/03/22 06:48:22;;;;;;;48.28;30.70;;;4.60;99.90;;;;;;5078317;28;20085;-81
2022/03/22 06:51:07;;;;;;;48.25;30.50;;;4.70;99.90;;;;;;5092809;28;20038;-81
2022/03/22 06:53:52;;;;;;;47.53;30.95;;;4.80;99.90;;;;;;5092791;28;20043;-82
2022/03/22 06:56:37;;;;;;;50.67;33.75;;;4.90;99.90;;;;;;5092324;28;20093;-81
2022/03/22 06:59:21;;;;;;;51.95;32.75;;;5.00;99.90;;;;;;5078101;28;20051;-81
2022/03/22 07:02:05;;;;;;;50.17;31.00;;;5.10;99.90;;;;;;5091020;28;20051;-81
2022/03/22 07:04:50;;;;;;;53.10;32.97;;;5.20;99.90;;;;;;5091886;28;20039;-84
2022/03/22 07:07:35;;;;;;;47.92;31.85;;;5.40;99.90;;;;;;5093086;28;20127;-81
2022/03/22 07:10:20;;;;;;;49.58;30.98;;;5.50;99.90;;;;;;5092050;28;20494;-80
2022/03/22 07:13:08;;;;;;;43.97;30.27;;;5.70;99.90;;;;;;5092495;28;20039;-81
2022/03/22 07:15:52;;;;;;;49.17;30.88;;;5.80;99.90;;;;;;5091717;28;20043;-86
2022/03/22 07:18:36;;;;;;;;;;;5.90;99.90;;;;;;5092213;28;20043;-81
2022/03/22 07:21:20;;;;;;;53.30;30.77;;;6.10;99.90;;;;;;5092131;28;19935;-80
2022/03/22 07:24:05;;;;;;;50.92;31.35;;;6.20;99.90;;;;;;5120190;27;20533;-80
2022/03/22 07:26:49;;;;;;;46.40;30.85;;;6.40;99.90;;;;;;5092808;28;20411;-81
2022/03/22 07:29:34;;;;;;;52.78;32.22;;;6.60;99.90;;;;;;5091815;28;20035;-81
2022/03/22 07:32:19;;;;;;;43.90;29.05;;;7.10;99.90;;;;;;5120377;27;20089;-81
2022/03/22 07:35:03;;;;;;;45.83;30.10;;;7.70;99.90;;;;;;5092247;28;20038;-81
2022/03/22 07:37:49;;;;;;;45.03;28.08;;;8.50;99.90;;;;;;5077643;28;20047;-81
2022/03/22 07:40:33;;;;;;;44.67;27.42;;;9.10;99.90;;;;;;5092748;28;20089;-81
2022/03/22 07:43:17;;;;;;;46.05;27.88;;;9.70;99.90;;;;;;5077366;28;20116;-80
2022/03/22 07:46:01;;;;;;;45.85;27.83;;;10.30;99.90;;;;;;5076814;28;20091;-80
2022/03/22 07:48:46;;;;;;;44.58;27.85;;;10.90;99.90;;;;;;5092629;28;20427;-80
2022/03/22 07:54:33;;;;;;;40.17;25.73;;;12.20;99.90;;;;;;5092566;28;20047;-80
2022/03/22 07:57:19;;;;;;;40.50;26.10;;;12.90;99.90;;;;;;5105518;28;20047;-80
2022/03/22 08:00:04;;;;;;;41.55;24.27;;;13.30;99.90;;;;;;5091021;28;20131;-81
2022/03/22 08:02:56;;;;;;;43.58;25.67;;;13.70;99.90;;;;;;5091482;28;20043;-81
2022/03/22 08:05:44;;;;;;;37.42;24.75;;;14.10;99.90;;;;;;5105928;28;20109;-81
2022/03/22 08:08:28;;;;;;;36.63;23.55;;;14.40;99.90;;;;;;5091231;28;20043;-81
2022/03/22 08:11:13;;;;;;;35.70;24.05;;;14.40;99.90;;;;;;5092007;28;20047;-81
2022/03/22 08:13:59;;;;;;;38.10;23.77;;;14.20;99.90;;;;;;5122595;27;20051;-81
2022/03/22 08:16:44;;;;;;;34.20;23.33;;;13.90;99.90;;;;;;5096563;28;20079;-81
2022/03/22 08:19:29;;;;;;;33.42;23.30;;;13.70;99.90;;;;;;5081167;28;20047;-81
2022/03/22 08:22:13;;;;;;;33.10;22.58;;;13.60;99.90;;;;;;5095800;28;20043;-80
2022/03/22 08:24:58;;;;;;;33.95;22.42;;;13.80;99.90;;;;;;5095343;28;20071;-81
2022/03/22 08:27:42;;;;;;;32.80;22.27;;;13.90;99.90;;;;;;5095194;28;20051;-81
2022/03/22 08:30:28;;;;;;;37.60;23.35;;;14.20;99.60;;;;;;5096011;28;20116;-81
2022/03/22 08:33:12;;;;;;;32.05;23.50;;;14.50;98.10;;;;;;5095667;28;20047;-81
2022/03/22 08:35:57;;;;;;;33.60;23.27;;;14.80;97.20;;;;;;5095257;28;20081;-81
2022/03/22 08:38:41;;;;;;;33.67;22.90;;;14.90;96.40;;;;;;5124021;27;20043;-81
2022/03/22 08:41:25;;;;;;;;;;;14.90;95.50;;;;;;5095812;28;20055;-81
2022/03/22 08:44:11;;;;;;;35.25;22.50;;;14.70;94.90;;;;;;5094479;28;19942;-81
2022/03/22 08:46:55;;;;;;;34.65;21.05;;;14.60;96.50;;;;;;5080760;28;20503;-81
2022/03/22 08:49:40;;;;;;;30.55;20.85;;;14.50;96.30;;;;;;5095890;28;20540;-81
2022/03/22 08:52:25;;;;;;;32.58;22.23;;;14.40;96.60;;;;;;5094269;28;20215;-81
2022/03/22 08:55:15;;;;;;;33.35;20.15;;;14.40;96.70;;;;;;5123298;27;20486;-81
2022/03/22 08:58:05;;;;;;;31.70;20.13;;;14.40;96.50;;;;;;5095783;28;20077;-80
2022/03/22 09:00:49;;;;;;;33.03;20.55;;;14.50;96.40;;;;;;5081067;28;20112;-80
2022/03/22 09:03:35;;;;;;;29.60;20.70;;;14.60;96.20;;;;;;5095569;28;20050;-81
2022/03/22 09:06:19;;;;;;;31.60;21.13;;;14.80;95.60;;;;;;5093898;28;20125;-81
2022/03/22 09:09:05;;;;;;;31.02;21.60;;;14.90;94.80;;;;;;5080139;28;20182;-81
2022/03/22 09:11:49;;;;;;;31.20;20.83;;;15.00;94.10;;;;;;5095481;28;20487;-80
2022/03/22 09:14:33;;;;;;;30.58;20.73;;;14.90;94.00;;;;;;5094331;28;20100;-81
2022/03/22 09:17:17;;;;;;;30.08;20.33;;;15.00;94.20;;;;;;5094836;28;20497;-81
2022/03/22 09:20:02;;;;;;;29.30;19.75;;;15.00;93.90;;;;;;5066013;28;20136;-81
2022/03/22 09:22:49;;;;;;;32.60;20.42;;;15.10;93.60;;;;;;5094162;28;20096;-81
2022/03/22 09:25:33;;;;;;;35.30;21.00;;;15.20;93.60;;;;;;5094566;28;20085;-81
2022/03/22 09:28:18;;;;;;;31.25;21.08;;;15.50;93.70;;;;;;5108120;28;20479;-80
2022/03/22 09:31:02;;;;;;;33.72;20.23;;;15.80;92.90;;;;;;5108470;28;20086;-81
2022/03/22 09:33:48;;;;;;;34.78;21.05;;;16.10;92.20;;;;;;5079852;28;20043;-81
2022/03/22 09:36:32;;;;;;;30.67;20.15;;;16.20;91.90;;;;;;5094406;28;20079;-81
2022/03/22 09:39:19;;;;;;;26.58;19.52;;;16.40;91.20;;;;;;5093345;28;20039;-81
2022/03/22 09:42:06;;;;;;;27.42;19.80;;;16.50;91.30;;;;;;5094966;28;20043;-81
2022/03/22 09:44:52;;;;;;;32.65;20.35;;;16.60;90.60;;;;;;5094888;28;20043;-81
2022/03/22 09:47:37;;;;;;;29.67;18.85;;;16.60;89.70;;;;;;5094591;28;20101;-81
2022/03/22 09:51:44;;;;;;;31.85;19.75;;;16.90;96.30;;;;;;5107555;28;20089;-81
2022/03/22 09:53:26;;;;;;;29.88;19.67;;;16.90;92.90;;;;;;5093237;28;20043;-80
2022/03/22 09:56:10;;;;;;;28.05;19.65;;;16.80;87.40;;;;;;5093488;28;20074;-83
2022/03/22 09:58:54;;;;;;;32.78;19.55;;;16.80;87.20;;;;;;5093618;28;20038;-80
2022/03/22 10:01:40;;;;;;;27.30;18.23;;;16.80;86.50;;;;;;5094691;28;20408;-81
2022/03/22 10:04:41;;;;;;;28.00;18.40;;;16.90;85.60;;;;;;5093822;28;20069;-81
2022/03/22 10:07:27;;;;;;;29.58;18.85;;;17.00;85.20;;;;;;5093744;28;20043;-81
2022/03/22 10:10:15;;;;;;;32.35;20.25;;;17.10;84.80;;;;;;5094215;28;20114;-80
2022/03/22 10:13:03;;;;;;;30.65;20.10;;;17.20;83.80;;;;;;5094248;28;20420;-81
2022/03/22 10:15:47;;;;;;;28.75;18.23;;;17.30;83.70;;;;;;5093133;28;20038;-80
2022/03/22 10:18:37;;;;;;;27.60;18.75;;;17.30;83.10;;;;;;5093585;28;20043;-82
2022/03/22 10:21:21;;;;;;;34.17;20.25;;;17.40;82.10;;;;;;5093580;28;20088;-81
2022/03/22 10:24:05;;;;;;;29.85;19.83;;;17.60;81.40;;;;;;5094119;28;20035;-81
2022/03/22 10:26:50;;;;;;;31.70;18.73;;;17.80;79.20;;;;;;5093914;28;20098;-80
2022/03/22 10:29:41;;;;;;;27.85;18.40;;;17.80;79.10;;;;;;5121375;27;20550;-81
2022/03/22 10:32:44;;;;;;;30.63;19.77;;;17.90;77.40;;;;;;5093406;28;20034;-81
2022/03/22 10:35:30;;;;;;;28.13;18.10;;;17.90;77.50;;;;;;5091598;28;20396;-81
2022/03/22 10:38:18;;;;;;;26.38;19.33;;;18.00;77.40;;;;;;5093833;28;20039;-81
2022/03/22 10:41:07;;;;;;;36.95;20.17;;;18.10;76.80;;;;;;5093815;28;20093;-81
2022/03/22 10:44:15;;;;;;;29.98;19.65;;;18.20;76.70;;;;;;5093677;28;20043;-80
2022/03/22 10:47:02;;;;;;;29.23;19.23;;;18.40;75.10;;;;;;5093558;28;20094;-81
2022/03/22 10:49:46;;;;;;;29.73;18.00;;;18.50;74.60;;;;;;5078618;28;20039;-81
2022/03/22 10:52:32;;;;;;;27.90;19.55;;;18.60;73.80;;;;;;5077732;28;20197;-81
2022/03/22 10:55:19;;;;;;;30.67;19.60;;;18.80;73.60;;;;;;5093499;28;20039;-81
2022/03/22 10:58:04;;;;;;;28.02;19.17;;;18.90;72.60;;;;;;5093454;28;20404;-81
2022/03/22 11:00:49;;;;;;;27.90;19.73;;;19.00;72.50;;;;;;5092316;28;20043;-81
2022/03/22 11:03:34;;;;;;;27.00;19.10;;;19.00;72.50;;;;;;5091689;28;20075;-81
2022/03/22 11:06:19;;;;;;;29.90;20.52;;;19.10;72.20;;;;;;5092122;28;20062;-82
2022/03/22 11:09:04;;;;;;;29.48;20.27;;;19.10;70.40;;;;;;5077951;28;20499;-81
2022/03/22 11:11:50;;;;;;;31.73;19.60;;;19.00;70.00;;;;;;5092108;28;20035;-81
2022/03/22 11:14:36;;;;;;;32.63;19.88;;;19.00;70.40;;;;;;5106053;28;20038;-79
2022/03/22 11:17:21;;;;;;;28.60;17.02;;;19.20;70.40;;;;;;5093027;28;20043;-80
2022/03/22 11:20:08;;;;;;;25.98;17.73;;;19.30;70.10;;;;;;5093211;28;20043;-79
2022/03/22 11:22:55;;;;;;;24.98;18.33;;;19.40;69.70;;;;;;5091943;28;20528;-79
2022/03/22 11:25:39;;;;;;;27.15;18.08;;;19.60;69.20;;;;;;5092169;28;20115;-79
2022/03/22 11:28:24;;;;;;;27.02;17.98;;;19.70;68.30;;;;;;5091338;28;20116;-81
2022/03/22 11:31:09;;;;;;;28.77;19.10;;;19.80;67.10;;;;;;5092920;28;20085;-79
2022/03/22 11:34:13;;;;;;;27.63;18.35;;;19.90;67.00;;;;;;5092761;28;20042;-80
2022/03/22 11:36:58;;;;;;;;;;;20.00;67.00;;;;;;5080731;28;20051;-79
2022/03/22 11:42:57;;;;;;;26.23;17.85;;;20.40;64.50;;;;;;5092841;28;20450;-80
2022/03/22 11:45:50;;;;;;;27.65;16.50;;;20.40;64.30;;;;;;5090921;28;20104;-80
2022/03/22 11:48:39;;;;;;;26.80;17.50;;;20.50;63.40;;;;;;5090824;28;20035;-80
2022/03/22 11:51:24;;;;;;;27.35;17.95;;;20.50;64.00;;;;;;5092562;28;20399;-79
2022/03/22 11:54:08;;;;;;;28.25;16.92;;;20.60;62.80;;;;;;5092492;28;20090;-79
2022/03/22 11:56:56;;;;;;;27.38;17.35;;;20.60;61.20;;;;;;5092293;28;20097;-79
2022/03/22 11:59:42;;;;;;;29.55;18.88;;;20.70;60.90;;;;;;5090825;28;20498;-80
2022/03/22 12:02:34;;;;;;;30.40;17.92;;;20.70;60.90;;;;;;5092147;28;20121;-81
2022/03/22 12:05:19;;;;;;;27.70;17.05;;;20.80;60.60;;;;;;5092259;28;20442;-80
2022/03/22 12:08:13;;;;;;;25.50;15.95;;;20.80;59.90;;;;;;5091419;28;20083;-80
2022/03/22 12:10:59;;;;;;;29.42;17.20;;;20.80;59.10;;;;;;5091518;28;20109;-79
2022/03/22 12:13:45;;;;;;;27.08;17.75;;;20.90;59.20;;;;;;5119595;28;20039;-80
2022/03/22 12:16:30;;;;;;;30.42;17.77;;;21.00;58.30;;;;;;5090908;28;20126;-81
2022/03/22 12:19:24;;;;;;;26.67;18.08;;;21.10;57.40;;;;;;5091296;28;20042;-79
2022/03/22 12:22:09;;;;;;;29.35;18.15;;;21.10;57.20;;;;;;5092345;28;20158;-80
2022/03/22 12:24:57;;;;;;;28.40;17.52;;;21.10;57.20;;;;;;5090620;28;20115;-79
2022/03/22 12:27:56;;;;;;;27.20;18.10;;;21.10;56.80;;;;;;5091462;28;20100;-80
2022/03/22 12:30:43;;;;;;;25.77;17.48;;;21.10;56.40;;;;;;5090543;28;20078;-80
2022/03/22 12:33:27;;;;;;;28.63;16.70;;;21.00;54.90;;;;;;5092151;28;20071;-80
2022/03/22 12:36:13;;;;;;;29.55;16.67;;;20.80;56.80;;;;;;5091163;28;20046;-79
2022/03/22 12:38:58;;;;;;;23.27;16.00;;;20.90;56.30;;;;;;5091883;28;20038;-80
2022/03/22 12:41:43;;;;;;;25.73;17.33;;;20.90;55.70;;;;;;5090413;28;20097;-80
2022/03/22 12:44:27;;;;;;;27.92;18.17;;;21.00;55.70;;;;;;5091002;28;20396;-79
2022/03/22 12:47:12;;;;;;;27.83;18.30;;;21.10;55.50;;;;;;5091789;28;20066;-79
2022/03/22 12:49:56;;;;;;;27.42;17.77;;;21.20;55.70;;;;;;5091169;28;20098;-79
2022/03/22 12:52:41;;;;;;;27.92;17.48;;;21.40;55.90;;;;;;5090447;28;20043;-80
2022/03/22 12:55:27;;;;;;;25.85;18.05;;;21.50;56.00;;;;;;5091831;28;20461;-80
2022/03/22 12:58:11;;;;;;;26.20;17.38;;;21.50;55.50;;;;;;5091725;28;20105;-80
2022/03/22 13:00:57;;;;;;;28.73;17.50;;;21.60;55.40;;;;;;5094557;28;20542;-80
2022/03/22 13:03:44;;;;;;;26.85;18.08;;;21.50;55.70;;;;;;5079676;28;20586;-80
2022/03/22 13:06:28;;;;;;;27.02;17.05;;;21.40;54.20;;;;;;5079966;28;20043;-79
2022/03/22 13:12:17;;;;;;;27.20;17.48;;;21.30;54.70;;;;;;5095187;28;20047;-79
2022/03/22 13:15:08;;;;;;;25.38;14.90;;;21.50;54.30;;;;;;5094955;28;20043;-80
2022/03/22 13:17:52;;;;;;;24.73;16.98;;;21.50;53.20;;;;;;5093474;28;20182;-79
2022/03/22 13:20:40;;;;;;;24.15;16.52;;;21.40;52.90;;;;;;5094770;28;20043;-81
2022/03/22 13:23:24;;;;;;;26.73;15.95;;;21.40;52.80;;;;;;5095007;28;20054;-79
2022/03/22 13:26:15;;;;;;;29.73;16.95;;;21.40;53.20;;;;;;5094876;28;20462;-80
2022/03/22 13:29:14;;;;;;;30.00;15.80;;;21.40;52.00;;;;;;5094337;28;20129;-80
2022/03/22 13:32:01;;;;;;;27.60;16.23;;;21.40;52.50;;;;;;5094272;28;20691;-80
2022/03/22 13:34:48;;;;;;;23.58;15.35;;;21.40;53.70;;;;;;5094164;28;20040;-81
2022/03/22 13:37:49;;;;;;;25.33;17.45;;;21.50;52.70;;;;;;5122795;27;20043;-80
2022/03/22 13:40:41;;;;;;;26.20;16.90;;;21.50;53.30;;;;;;5094821;28;20030;-80
2022/03/22 13:43:26;;;;;;;30.88;18.67;;;21.50;52.70;;;;;;5094583;28;20079;-81
2022/03/22 13:46:11;;;;;;;28.70;17.20;;;21.50;52.80;;;;;;5094485;28;20120;-81
2022/03/22 13:48:56;;;;;;;25.23;17.00;;;21.50;51.80;;;;;;5093818;28;20065;-80
2022/03/22 13:51:40;;;;;;;30.42;17.08;;;21.50;52.50;;;;;;5093309;28;20106;-82
2022/03/22 13:54:25;;;;;;;22.65;15.55;;;21.60;52.00;;;;;;5094380;28;20137;-81
2022/03/22 13:57:09;;;;;;;30.02;17.55;;;21.60;51.60;;;;;;5093409;28;20051;-80
2022/03/22 13:59:58;;;;;;;25.55;17.08;;;21.60;50.50;;;;;;5093774;28;20042;-80
2022/03/22 14:02:43;;;;;;;28.35;16.55;;;21.60;51.40;;;;;;5093798;28;20089;-82
2022/03/22 14:05:27;;;;;;;23.05;15.90;;;21.60;51.10;;;;;;5093186;28;20043;-80
2022/03/22 14:08:12;;;;;;;25.83;16.15;;;21.70;52.30;;;;;;5094138;28;20411;-81
2022/03/22 14:10:58;;;;;;;26.65;16.13;;;21.70;50.90;;;;;;5064077;28;20103;-80
2022/03/22 14:13:43;;;;;;;27.40;16.23;;;21.70;50.90;;;;;;5092849;28;20062;-82
2022/03/22 14:16:28;;;;;;;25.42;16.40;;;21.60;50.60;;;;;;5122290;27;20064;-80
2022/03/22 14:19:15;;;;;;;25.35;14.77;;;21.60;51.50;;;;;;5078800;28;20089;-81
2022/03/22 14:21:59;;;;;;;27.30;14.30;;;21.60;50.80;;;;;;5093470;28;20112;-81
2022/03/22 14:24:43;;;;;;;20.33;14.02;;;21.60;51.30;;;;;;5092745;28;20038;-81
2022/03/22 14:27:29;;;;;;;28.23;15.00;;;21.60;50.80;;;;;;5078511;28;20086;-81
2022/03/22 14:30:17;;;;;;;20.10;12.20;;;21.50;49.90;;;;;;5093676;28;20082;-80
2022/03/22 14:33:07;;;;;;;18.63;11.63;;;21.30;49.50;;;;;;5093174;28;20400;-79
2022/03/22 14:35:56;;;;;;;17.42;10.35;;;21.20;49.50;;;;;;5092045;28;20039;-80
2022/03/22 14:38:40;;;;;;;16.88;10.95;;;21.20;49.60;;;;;;5078998;28;20392;-80
2022/03/22 14:41:25;;;;;;;16.98;10.93;;;21.30;49.80;;;;;;5092297;28;20121;-79
2022/03/22 14:44:09;;;;;;;17.90;11.70;;;21.30;49.80;;;;;;5077635;28;20125;-79
2022/03/22 14:46:53;;;;;;;19.15;11.75;;;21.30;49.50;;;;;;5091681;28;20486;-79
2022/03/22 14:49:38;;;;;;;17.88;11.50;;;21.40;49.30;;;;;;5093374;28;20047;-79
2022/03/22 14:55:26;;;;;;;16.83;11.95;;;21.20;49.40;;;;;;5093275;28;20042;-81